sensor_id;sensor_type;location;lat;lon;timestamp;pressure;altitude;pressure_sealevel;temperature;humidity
76990;BME280;65924;47.250;11.332;2024-01-10T00:00:03;95516.46;;;-3.63;75.05
76990;BME280;65924;47.250;11.332;2024-01-10T00:00:36;95515.64;;;-3.63;74.94
76990;BME280;65924;47.250;11.332;2024-01-10T00:01:07;95516.79;;;-3.64;74.90
76990;BME280;65924;47.250;11.332;2024-01-10T00:01:38;95516.29;;;-3.66;74.72
76990;BME280;65924;47.250;11.332;2024-01-10T00:02:08;95515.95;;;-3.69;74.76
76990;BME280;65924;47.250;11.332;2024-01-10T00:02:42;95519.60;;;-3.70;74.61
76990;BME280;65924;47.250;11.332;2024-01-10T00:03:12;95515.27;;;-3.72;74.47
76990;BME280;65924;47.250;11.332;2024-01-10T00:03:43;95518.09;;;-3.74;74.67
76990;BME280;65924;47.250;11.332;2024-01-10T00:04:14;95515.27;;;-3.76;74.63
76990;BME280;65924;47.250;11.332;2024-01-10T00:04:46;95514.10;;;-3.76;74.86
76990;BME280;65924;47.250;11.332;2024-01-10T00:05:17;95514.10;;;-3.76;75.06
76990;BME280;65924;47.250;11.332;2024-01-10T00:05:48;95516.41;;;-3.76;74.92
76990;BME280;65924;47.250;11.332;2024-01-10T00:06:21;95516.23;;;-3.76;74.84
76990;BME280;65924;47.250;11.332;2024-01-10T00:06:52;95518.91;;;-3.77;74.73
76990;BME280;65924;47.250;11.332;2024-01-10T00:07:22;95516.75;;;-3.78;74.85
76990;BME280;65924;47.250;11.332;2024-01-10T00:07:53;95515.77;;;-3.79;74.97
76990;BME280;65924;47.250;11.332;2024-01-10T00:08:24;95516.26;;;-3.79;75.10
76990;BME280;65924;47.250;11.332;2024-01-10T00:08:55;95516.24;;;-3.80;75.10
76990;BME280;65924;47.250;11.332;2024-01-10T00:09:25;95519.23;;;-3.80;75.14
76990;BME280;65924;47.250;11.332;2024-01-10T00:09:56;95515.59;;;-3.80;75.35
76990;BME280;65924;47.250;11.332;2024-01-10T00:10:30;95514.26;;;-3.78;75.28
76990;BME280;65924;47.250;11.332;2024-01-10T00:11:01;95515.77;;;-3.77;75.21
76990;BME280;65924;47.250;11.332;2024-01-10T00:11:31;95512.44;;;-3.77;75.20
76990;BME280;65924;47.250;11.332;2024-01-10T00:12:02;95514.27;;;-3.77;75.27
76990;BME280;65924;47.250;11.332;2024-01-10T00:12:33;95512.10;;;-3.76;75.11
76990;BME280;65924;47.250;11.332;2024-01-10T00:13:09;95511.27;;;-3.77;74.90
76990;BME280;65924;47.250;11.332;2024-01-10T00:13:40;95511.94;;;-3.78;74.82
76990;BME280;65924;47.250;11.332;2024-01-10T00:14:10;95511.94;;;-3.79;74.63
76990;BME280;65924;47.250;11.332;2024-01-10T00:14:41;95508.61;;;-3.81;74.48
76990;BME280;65924;47.250;11.332;2024-01-10T00:15:14;95512.91;;;-3.82;74.22
76990;BME280;65924;47.250;11.332;2024-01-10T00:15:45;95512.59;;;-3.83;74.49
76990;BME280;65924;47.250;11.332;2024-01-10T00:16:16;95512.92;;;-3.82;74.47
76990;BME280;65924;47.250;11.332;2024-01-10T00:16:47;95511.43;;;-3.83;74.51
76990;BME280;65924;47.250;11.332;2024-01-10T00:17:18;95510.92;;;-3.83;74.49
76990;BME280;65924;47.250;11.332;2024-01-10T00:17:49;95515.06;;;-3.83;74.64
76990;BME280;65924;47.250;11.332;2024-01-10T00:18:20;95515.73;;;-3.84;74.61
76990;BME280;65924;47.250;11.332;2024-01-10T00:18:50;95514.73;;;-3.85;74.73
76990;BME280;65924;47.250;11.332;2024-01-10T00:19:21;95515.73;;;-3.85;74.82
76990;BME280;65924;47.250;11.332;2024-01-10T00:19:51;95517.39;;;-3.85;74.92
76990;BME280;65924;47.250;11.332;2024-01-10T00:20:22;95517.05;;;-3.85;74.87
76990;BME280;65924;47.250;11.332;2024-01-10T00:20:53;95515.55;;;-3.85;74.96
76990;BME280;65924;47.250;11.332;2024-01-10T00:21:26;95511.73;;;-3.85;74.79
76990;BME280;65924;47.250;11.332;2024-01-10T00:21:57;95514.25;;;-3.83;74.75
76990;BME280;65924;47.250;11.332;2024-01-10T00:22:28;95515.08;;;-3.83;74.92
76990;BME280;65924;47.250;11.332;2024-01-10T00:22:59;95510.75;;;-3.83;74.92
76990;BME280;65924;47.250;11.332;2024-01-10T00:23:30;95509.60;;;-3.82;74.97
76990;BME280;65924;47.250;11.332;2024-01-10T00:24:00;95509.93;;;-3.82;74.78
76990;BME280;65924;47.250;11.332;2024-01-10T00:24:31;95510.59;;;-3.82;74.88
76990;BME280;65924;47.250;11.332;2024-01-10T00:25:01;95512.59;;;-3.80;74.97
76990;BME280;65924;47.250;11.332;2024-01-10T00:25:32;95511.60;;;-3.77;74.95
76990;BME280;65924;47.250;11.332;2024-01-10T00:26:03;95508.79;;;-3.77;74.81
76990;BME280;65924;47.250;11.332;2024-01-10T00:26:34;95511.44;;;-3.75;74.71
76990;BME280;65924;47.250;11.332;2024-01-10T00:27:04;95511.13;;;-3.73;74.95
76990;BME280;65924;47.250;11.332;2024-01-10T00:27:35;95512.13;;;-3.71;74.93
76990;BME280;65924;47.250;11.332;2024-01-10T00:28:06;95510.13;;;-3.70;74.77
76990;BME280;65924;47.250;11.332;2024-01-10T00:28:37;95513.13;;;-3.69;74.82
76990;BME280;65924;47.250;11.332;2024-01-10T00:29:08;95511.15;;;-3.68;74.72
76990;BME280;65924;47.250;11.332;2024-01-10T00:29:38;95511.98;;;-3.66;74.88
76990;BME280;65924;47.250;11.332;2024-01-10T00:30:09;95510.81;;;-3.66;74.74
76990;BME280;65924;47.250;11.332;2024-01-10T00:30:40;95512.30;;;-3.65;74.76
76990;BME280;65924;47.250;11.332;2024-01-10T00:31:11;95509.65;;;-3.64;74.76
76990;BME280;65924;47.250;11.332;2024-01-10T00:31:41;95513.30;;;-3.63;74.82
76990;BME280;65924;47.250;11.332;2024-01-10T00:32:12;95510.98;;;-3.62;75.00
76990;BME280;65924;47.250;11.332;2024-01-10T00:32:43;95510.48;;;-3.62;74.83
76990;BME280;65924;47.250;11.332;2024-01-10T00:33:14;95511.31;;;-3.62;74.65
76990;BME280;65924;47.250;11.332;2024-01-10T00:33:44;95509.64;;;-3.64;74.59
76990;BME280;65924;47.250;11.332;2024-01-10T00:34:15;95513.63;;;-3.66;74.82
76990;BME280;65924;47.250;11.332;2024-01-10T00:34:45;95511.97;;;-3.67;75.02
76990;BME280;65924;47.250;11.332;2024-01-10T00:35:16;95514.45;;;-3.67;75.09
76990;BME280;65924;47.250;11.332;2024-01-10T00:35:47;95511.80;;;-3.67;75.04
76990;BME280;65924;47.250;11.332;2024-01-10T00:36:17;95511.97;;;-3.67;75.09
76990;BME280;65924;47.250;11.332;2024-01-10T00:36:48;95512.64;;;-3.67;75.14
76990;BME280;65924;47.250;11.332;2024-01-10T00:37:19;95512.47;;;-3.67;75.26
76990;BME280;65924;47.250;11.332;2024-01-10T00:37:49;95511.14;;;-3.66;75.44
76990;BME280;65924;47.250;11.332;2024-01-10T00:38:20;95510.30;;;-3.65;75.42
76990;BME280;65924;47.250;11.332;2024-01-10T00:38:51;95508.98;;;-3.66;75.43
76990;BME280;65924;47.250;11.332;2024-01-10T00:39:21;95507.17;;;-3.64;75.43
76990;BME280;65924;47.250;11.332;2024-01-10T00:39:52;95510.30;;;-3.63;75.50
76990;BME280;65924;47.250;11.332;2024-01-10T00:40:23;95511.80;;;-3.62;75.42
76990;BME280;65924;47.250;11.332;2024-01-10T00:40:54;95509.48;;;-3.62;75.35
76990;BME280;65924;47.250;11.332;2024-01-10T00:41:26;95510.16;;;-3.61;75.32
76990;BME280;65924;47.250;11.332;2024-01-10T00:41:57;95509.49;;;-3.60;75.21
76990;BME280;65924;47.250;11.332;2024-01-10T00:42:28;95507.00;;;-3.60;75.33
76990;BME280;65924;47.250;11.332;2024-01-10T00:42:59;95509.16;;;-3.60;75.15
76990;BME280;65924;47.250;11.332;2024-01-10T00:43:29;95507.51;;;-3.60;75.16
76990;BME280;65924;47.250;11.332;2024-01-10T00:44:00;95506.67;;;-3.61;75.09
76990;BME280;65924;47.250;11.332;2024-01-10T00:44:30;95507.33;;;-3.62;75.18
76990;BME280;65924;47.250;11.332;2024-01-10T00:45:01;95506.66;;;-3.62;75.09
76990;BME280;65924;47.250;11.332;2024-01-10T00:45:32;95506.83;;;-3.62;74.87
76990;BME280;65924;47.250;11.332;2024-01-10T00:46:02;95506.99;;;-3.64;74.82
76990;BME280;65924;47.250;11.332;2024-01-10T00:46:33;95506.65;;;-3.65;74.89
76990;BME280;65924;47.250;11.332;2024-01-10T00:47:04;95507.66;;;-3.66;74.99
76990;BME280;65924;47.250;11.332;2024-01-10T00:47:34;95508.14;;;-3.65;75.23
76990;BME280;65924;47.250;11.332;2024-01-10T00:48:05;95507.48;;;-3.64;75.22
76990;BME280;65924;47.250;11.332;2024-01-10T00:48:35;95508.98;;;-3.63;75.28
76990;BME280;65924;47.250;11.332;2024-01-10T00:49:06;95508.98;;;-3.62;75.49
76990;BME280;65924;47.250;11.332;2024-01-10T00:49:37;95508.34;;;-3.59;75.46
76990;BME280;65924;47.250;11.332;2024-01-10T00:50:08;95506.67;;;-3.56;75.65
76990;BME280;65924;47.250;11.332;2024-01-10T00:50:39;95508.00;;;-3.53;75.67
76990;BME280;65924;47.250;11.332;2024-01-10T00:51:11;95508.52;;;-3.51;75.67
76990;BME280;65924;47.250;11.332;2024-01-10T00:51:43;95503.86;;;-3.49;75.41
76990;BME280;65924;47.250;11.332;2024-01-10T00:52:17;95502.55;;;-3.47;75.41
76990;BME280;65924;47.250;11.332;2024-01-10T00:52:49;95498.90;;;-3.46;75.48
76990;BME280;65924;47.250;11.332;2024-01-10T00:53:21;95504.20;;;-3.46;75.39
76990;BME280;65924;47.250;11.332;2024-01-10T00:53:52;95501.20;;;-3.46;75.24
76990;BME280;65924;47.250;11.332;2024-01-10T00:54:23;95502.89;;;-3.45;75.27
76990;BME280;65924;47.250;11.332;2024-01-10T00:54:55;95498.39;;;-3.44;75.17
76990;BME280;65924;47.250;11.332;2024-01-10T00:55:28;95499.72;;;-3.43;75.28
76990;BME280;65924;47.250;11.332;2024-01-10T00:55:59;95495.23;;;-3.43;75.19
76990;BME280;65924;47.250;11.332;2024-01-10T00:56:31;95496.89;;;-3.41;75.14
76990;BME280;65924;47.250;11.332;2024-01-10T00:57:04;95497.41;;;-3.40;75.29
76990;BME280;65924;47.250;11.332;2024-01-10T00:57:35;95499.39;;;-3.39;75.25
76990;BME280;65924;47.250;11.332;2024-01-10T00:58:10;95496.41;;;-3.37;75.41
76990;BME280;65924;47.250;11.332;2024-01-10T00:58:42;95496.92;;;-3.34;75.35
76990;BME280;65924;47.250;11.332;2024-01-10T00:59:13;95495.59;;;-3.32;75.34
76990;BME280;65924;47.250;11.332;2024-01-10T00:59:45;95497.08;;;-3.32;75.11
76990;BME280;65924;47.250;11.332;2024-01-10T01:00:20;95493.75;;;-3.33;75.07
76990;BME280;65924;47.250;11.332;2024-01-10T01:00:55;95497.08;;;-3.34;75.08
76990;BME280;65924;47.250;11.332;2024-01-10T01:01:28;95492.42;;;-3.35;75.20
76990;BME280;65924;47.250;11.332;2024-01-10T01:02:00;95495.09;;;-3.35;75.17
76990;BME280;65924;47.250;11.332;2024-01-10T01:02:32;95490.60;;;-3.37;75.31
76990;BME280;65924;47.250;11.332;2024-01-10T01:03:06;95496.41;;;-3.38;75.47
76990;BME280;65924;47.250;11.332;2024-01-10T01:03:38;95492.09;;;-3.38;75.52
76990;BME280;65924;47.250;11.332;2024-01-10T01:04:10;95492.74;;;-3.38;75.58
76990;BME280;65924;47.250;11.332;2024-01-10T01:04:41;95496.23;;;-3.38;75.56
76990;BME280;65924;47.250;11.332;2024-01-10T01:05:14;95495.40;;;-3.39;75.57
76990;BME280;65924;47.250;11.332;2024-01-10T01:05:46;95495.90;;;-3.39;75.58
76990;BME280;65924;47.250;11.332;2024-01-10T01:06:17;95496.91;;;-3.39;75.59
76990;BME280;65924;47.250;11.332;2024-01-10T01:06:50;95498.90;;;-3.40;75.60
76990;BME280;65924;47.250;11.332;2024-01-10T01:07:22;95501.89;;;-3.40;75.62
76990;BME280;65924;47.250;11.332;2024-01-10T01:07:54;95502.39;;;-3.43;75.31
76990;BME280;65924;47.250;11.332;2024-01-10T01:08:27;95504.39;;;-3.44;75.15
76990;BME280;65924;47.250;11.332;2024-01-10T01:08:58;95502.88;;;-3.45;74.95
76990;BME280;65924;47.250;11.332;2024-01-10T01:09:30;95503.05;;;-3.46;75.27
76990;BME280;65924;47.250;11.332;2024-01-10T01:10:05;95502.54;;;-3.47;75.35
76990;BME280;65924;47.250;11.332;2024-01-10T01:10:36;95499.89;;;-3.49;75.29
76990;BME280;65924;47.250;11.332;2024-01-10T01:11:08;95499.88;;;-3.50;75.28
76990;BME280;65924;47.250;11.332;2024-01-10T01:11:39;95497.05;;;-3.51;75.45
76990;BME280;65924;47.250;11.332;2024-01-10T01:12:12;95499.86;;;-3.52;75.43
76990;BME280;65924;47.250;11.332;2024-01-10T01:12:43;95502.20;;;-3.52;75.40
76990;BME280;65924;47.250;11.332;2024-01-10T01:13:15;95501.70;;;-3.53;75.50
76990;BME280;65924;47.250;11.332;2024-01-10T01:13:47;95499.04;;;-3.53;75.48
76990;BME280;65924;47.250;11.332;2024-01-10T01:14:18;95504.19;;;-3.54;75.55
76990;BME280;65924;47.250;11.332;2024-01-10T01:14:52;95500.88;;;-3.53;75.53
76990;BME280;65924;47.250;11.332;2024-01-10T01:15:23;95503.87;;;-3.52;75.45
76990;BME280;65924;47.250;11.332;2024-01-10T01:15:55;95504.52;;;-3.51;75.35
76990;BME280;65924;47.250;11.332;2024-01-10T01:16:26;95503.52;;;-3.52;75.47
76990;BME280;65924;47.250;11.332;2024-01-10T01:16:58;95502.20;;;-3.52;75.38
76990;BME280;65924;47.250;11.332;2024-01-10T01:17:30;95501.04;;;-3.52;74.98
76990;BME280;65924;47.250;11.332;2024-01-10T01:18:01;95504.36;;;-3.53;75.09
76990;BME280;65924;47.250;11.332;2024-01-10T01:18:34;95502.36;;;-3.55;75.01
76990;BME280;65924;47.250;11.332;2024-01-10T01:19:05;95501.20;;;-3.56;75.06
76990;BME280;65924;47.250;11.332;2024-01-10T01:19:36;95500.55;;;-3.57;74.99
76990;BME280;65924;47.250;11.332;2024-01-10T01:20:08;95502.19;;;-3.59;74.87
76990;BME280;65924;47.250;11.332;2024-01-10T01:20:40;95504.34;;;-3.60;74.85
76990;BME280;65924;47.250;11.332;2024-01-10T01:21:14;95509.16;;;-3.61;75.06
76990;BME280;65924;47.250;11.332;2024-01-10T01:21:45;95506.98;;;-3.62;75.17
76990;BME280;65924;47.250;11.332;2024-01-10T01:22:17;95508.98;;;-3.62;75.27
76990;BME280;65924;47.250;11.332;2024-01-10T01:22:49;95508.98;;;-3.59;75.64
76990;BME280;65924;47.250;11.332;2024-01-10T01:23:20;95510.83;;;-3.58;75.58
76990;BME280;65924;47.250;11.332;2024-01-10T01:23:52;95511.00;;;-3.57;75.42
76990;BME280;65924;47.250;11.332;2024-01-10T01:24:23;95511.84;;;-3.57;75.36
76990;BME280;65924;47.250;11.332;2024-01-10T01:24:54;95512.17;;;-3.56;75.43
76990;BME280;65924;47.250;11.332;2024-01-10T01:25:24;95508.67;;;-3.56;75.39
76990;BME280;65924;47.250;11.332;2024-01-10T01:25:55;95509.33;;;-3.55;75.34
76990;BME280;65924;47.250;11.332;2024-01-10T01:26:25;95507.36;;;-3.56;75.24
76990;BME280;65924;47.250;11.332;2024-01-10T01:26:56;95508.84;;;-3.55;75.46
76990;BME280;65924;47.250;11.332;2024-01-10T01:27:26;95511.02;;;-3.55;75.35
76990;BME280;65924;47.250;11.332;2024-01-10T01:27:57;95513.50;;;-3.55;75.42
76990;BME280;65924;47.250;11.332;2024-01-10T01:28:27;95509.51;;;-3.56;75.32
76990;BME280;65924;47.250;11.332;2024-01-10T01:28:58;95510.50;;;-3.56;75.42
76990;BME280;65924;47.250;11.332;2024-01-10T01:29:29;95511.84;;;-3.56;75.46
76990;BME280;65924;47.250;11.332;2024-01-10T01:29:59;95510.33;;;-3.56;75.59
76990;BME280;65924;47.250;11.332;2024-01-10T01:30:30;95511.17;;;-3.55;75.67
76990;BME280;65924;47.250;11.332;2024-01-10T01:31:00;95513.66;;;-3.55;75.59
76990;BME280;65924;47.250;11.332;2024-01-10T01:31:34;95515.48;;;-3.53;75.76
76990;BME280;65924;47.250;11.332;2024-01-10T01:32:04;95510.84;;;-3.52;75.70
76990;BME280;65924;47.250;11.332;2024-01-10T01:32:35;95513.66;;;-3.51;75.70
76990;BME280;65924;47.250;11.332;2024-01-10T01:33:06;95514.33;;;-3.49;75.31
76990;BME280;65924;47.250;11.332;2024-01-10T01:33:37;95514.02;;;-3.49;75.30
76990;BME280;65924;47.250;11.332;2024-01-10T01:34:12;95512.84;;;-3.49;75.22
76990;BME280;65924;47.250;11.332;2024-01-10T01:34:44;95513.01;;;-3.48;75.31
76990;BME280;65924;47.250;11.332;2024-01-10T01:35:16;95515.67;;;-3.47;75.44
76990;BME280;65924;47.250;11.332;2024-01-10T01:35:52;95513.69;;;-3.46;75.56
76990;BME280;65924;47.250;11.332;2024-01-10T01:36:25;95513.52;;;-3.45;75.49
76990;BME280;65924;47.250;11.332;2024-01-10T01:36:56;95513.35;;;-3.44;75.35
76990;BME280;65924;47.250;11.332;2024-01-10T01:37:28;95511.70;;;-3.45;75.22
76990;BME280;65924;47.250;11.332;2024-01-10T01:38:00;95511.52;;;-3.44;75.51
76990;BME280;65924;47.250;11.332;2024-01-10T01:38:31;95513.69;;;-3.43;75.47
76990;BME280;65924;47.250;11.332;2024-01-10T01:39:03;95511.02;;;-3.42;75.28
76990;BME280;65924;47.250;11.332;2024-01-10T01:39:36;95512.69;;;-3.42;75.25
76990;BME280;65924;47.250;11.332;2024-01-10T01:40:08;95513.02;;;-3.41;75.20
76990;BME280;65924;47.250;11.332;2024-01-10T01:40:39;95512.52;;;-3.40;75.40
76990;BME280;65924;47.250;11.332;2024-01-10T01:41:11;95512.84;;;-3.39;75.40
76990;BME280;65924;47.250;11.332;2024-01-10T01:41:42;95515.02;;;-3.39;75.05
76990;BME280;65924;47.250;11.332;2024-01-10T01:42:14;95518.17;;;-3.39;75.07
76990;BME280;65924;47.250;11.332;2024-01-10T01:42:47;95517.66;;;-3.40;75.16
76990;BME280;65924;47.250;11.332;2024-01-10T01:43:27;95518.50;;;-3.39;75.13
76990;BME280;65924;47.250;11.332;2024-01-10T01:43:59;95517.35;;;-3.40;75.45
76990;BME280;65924;47.250;11.332;2024-01-10T01:44:30;95517.67;;;-3.41;75.39
76990;BME280;65924;47.250;11.332;2024-01-10T01:45:04;95519.50;;;-3.41;75.45
76990;BME280;65924;47.250;11.332;2024-01-10T01:45:36;95521.16;;;-3.40;75.39
76990;BME280;65924;47.250;11.332;2024-01-10T01:46:08;95521.00;;;-3.42;75.28
76990;BME280;65924;47.250;11.332;2024-01-10T01:46:39;95519.17;;;-3.43;75.17
76990;BME280;65924;47.250;11.332;2024-01-10T01:47:14;95520.66;;;-3.45;75.24
76990;BME280;65924;47.250;11.332;2024-01-10T01:47:45;95519.98;;;-3.50;75.11
76990;BME280;65924;47.250;11.332;2024-01-10T01:48:18;95520.48;;;-3.51;75.13
76990;BME280;65924;47.250;11.332;2024-01-10T01:48:50;95523.47;;;-3.51;74.98
76990;BME280;65924;47.250;11.332;2024-01-10T01:49:24;95521.80;;;-3.53;74.96
76990;BME280;65924;47.250;11.332;2024-01-10T01:49:56;95519.98;;;-3.55;74.85
76990;BME280;65924;47.250;11.332;2024-01-10T01:50:30;95518.98;;;-3.56;74.90
76990;BME280;65924;47.250;11.332;2024-01-10T01:51:06;95523.63;;;-3.57;74.83
76990;BME280;65924;47.250;11.332;2024-01-10T01:51:39;95521.80;;;-3.58;74.93
76990;BME280;65924;47.250;11.332;2024-01-10T01:52:11;95523.62;;;-3.60;75.07
76990;BME280;65924;47.250;11.332;2024-01-10T01:52:43;95521.63;;;-3.60;75.31
76990;BME280;65924;47.250;11.332;2024-01-10T01:53:16;95522.61;;;-3.61;75.32
76990;BME280;65924;47.250;11.332;2024-01-10T01:53:50;95523.61;;;-3.61;75.45
76990;BME280;65924;47.250;11.332;2024-01-10T01:54:22;95523.29;;;-3.61;75.47
76990;BME280;65924;47.250;11.332;2024-01-10T01:54:54;95523.61;;;-3.61;75.57
76990;BME280;65924;47.250;11.332;2024-01-10T01:55:25;95521.62;;;-3.60;75.45
76990;BME280;65924;47.250;11.332;2024-01-10T01:55:57;95521.78;;;-3.59;75.52
76990;BME280;65924;47.250;11.332;2024-01-10T02:00:00;95520.30;;;-3.61;75.38
76990;BME280;65924;47.250;11.332;2024-01-10T02:00:50;95520.27;;;-3.62;75.53
76990;BME280;65924;47.250;11.332;2024-01-10T02:02:30;95520.95;;;-3.64;75.87
76990;BME280;65924;47.250;11.332;2024-01-10T02:03:05;95520.43;;;-3.65;75.79
76990;BME280;65924;47.250;11.332;2024-01-10T02:03:37;95519.95;;;-3.64;75.76
76990;BME280;65924;47.250;11.332;2024-01-10T02:04:07;95518.79;;;-3.63;75.78
76990;BME280;65924;47.250;11.332;2024-01-10T02:04:38;95516.63;;;-3.62;75.81
76990;BME280;65924;47.250;11.332;2024-01-10T02:05:13;95515.31;;;-3.59;75.72
76990;BME280;65924;47.250;11.332;2024-01-10T02:05:46;95515.15;;;-3.56;75.75
76990;BME280;65924;47.250;11.332;2024-01-10T02:06:17;95516.65;;;-3.56;75.76
76990;BME280;65924;47.250;11.332;2024-01-10T02:06:47;95516.98;;;-3.55;75.79
76990;BME280;65924;47.250;11.332;2024-01-10T02:07:18;95517.65;;;-3.55;75.75
76990;BME280;65924;47.250;11.332;2024-01-10T02:07:49;95518.14;;;-3.55;75.53
76990;BME280;65924;47.250;11.332;2024-01-10T02:08:20;95515.66;;;-3.56;75.39
76990;BME280;65924;47.250;11.332;2024-01-10T02:08:50;95516.66;;;-3.57;75.36
76990;BME280;65924;47.250;11.332;2024-01-10T02:09:23;95515.48;;;-3.58;75.21
76990;BME280;65924;47.250;11.332;2024-01-10T02:09:53;95518.14;;;-3.59;75.16
76990;BME280;65924;47.250;11.332;2024-01-10T02:10:24;95513.83;;;-3.60;75.06
76990;BME280;65924;47.250;11.332;2024-01-10T02:10:55;95519.14;;;-3.60;75.26
76990;BME280;65924;47.250;11.332;2024-01-10T02:11:26;95520.95;;;-3.59;75.49
76990;BME280;65924;47.250;11.332;2024-01-10T02:11:56;95518.98;;;-3.57;75.40
76990;BME280;65924;47.250;11.332;2024-01-10T02:12:27;95517.48;;;-3.56;75.24
76990;BME280;65924;47.250;11.332;2024-01-10T02:12:58;95519.65;;;-3.55;75.29
76990;BME280;65924;47.250;11.332;2024-01-10T02:13:29;95518.30;;;-3.56;75.28
76990;BME280;65924;47.250;11.332;2024-01-10T02:14:01;95516.64;;;-3.56;75.08
76990;BME280;65924;47.250;11.332;2024-01-10T02:14:31;95518.83;;;-3.57;75.37
76990;BME280;65924;47.250;11.332;2024-01-10T02:15:02;95520.30;;;-3.56;75.29
76990;BME280;65924;47.250;11.332;2024-01-10T02:15:35;95518.98;;;-3.56;75.44
76990;BME280;65924;47.250;11.332;2024-01-10T02:16:06;95523.29;;;-3.54;75.39
76990;BME280;65924;47.250;11.332;2024-01-10T02:16:39;95518.31;;;-3.53;75.56
76990;BME280;65924;47.250;11.332;2024-01-10T02:17:10;95518.80;;;-3.53;75.33
76990;BME280;65924;47.250;11.332;2024-01-10T02:17:41;95517.14;;;-3.53;75.38
76990;BME280;65924;47.250;11.332;2024-01-10T02:18:11;95519.30;;;-3.54;75.13
76990;BME280;65924;47.250;11.332;2024-01-10T02:18:44;95519.64;;;-3.54;75.31
76990;BME280;65924;47.250;11.332;2024-01-10T02:19:23;95519.31;;;-3.55;75.12
76990;BME280;65924;47.250;11.332;2024-01-10T02:20:13;95518.65;;;-3.57;75.02
76990;BME280;65924;47.250;11.332;2024-01-10T02:20:44;95522.45;;;-3.60;75.18
76990;BME280;65924;47.250;11.332;2024-01-10T02:21:15;95521.78;;;-3.61;75.25
76990;BME280;65924;47.250;11.332;2024-01-10T02:21:46;95521.13;;;-3.62;75.28
76990;BME280;65924;47.250;11.332;2024-01-10T02:22:19;95521.77;;;-3.62;75.16
76990;BME280;65924;47.250;11.332;2024-01-10T02:22:49;95526.42;;;-3.63;75.25
76990;BME280;65924;47.250;11.332;2024-01-10T02:23:20;95525.94;;;-3.63;75.38
76990;BME280;65924;47.250;11.332;2024-01-10T02:23:51;95526.10;;;-3.62;75.49
76990;BME280;65924;47.250;11.332;2024-01-10T02:24:25;95524.77;;;-3.62;75.58
76990;BME280;65924;47.250;11.332;2024-01-10T02:24:56;95524.78;;;-3.61;75.35
76990;BME280;65924;47.250;11.332;2024-01-10T02:25:26;95524.94;;;-3.62;75.16
76990;BME280;65924;47.250;11.332;2024-01-10T02:25:57;95526.44;;;-3.63;75.20
76990;BME280;65924;47.250;11.332;2024-01-10T02:26:28;95526.59;;;-3.64;75.05
76990;BME280;65924;47.250;11.332;2024-01-10T02:26:58;95523.75;;;-3.65;75.05
76990;BME280;65924;47.250;11.332;2024-01-10T02:27:30;95525.10;;;-3.66;74.95
76990;BME280;65924;47.250;11.332;2024-01-10T02:28:01;95522.60;;;-3.67;74.90
76990;BME280;65924;47.250;11.332;2024-01-10T02:28:32;95524.42;;;-3.68;74.95
76990;BME280;65924;47.250;11.332;2024-01-10T02:29:03;95523.42;;;-3.69;74.95
76990;BME280;65924;47.250;11.332;2024-01-10T02:29:34;95525.08;;;-3.70;74.94
76990;BME280;65924;47.250;11.332;2024-01-10T02:30:05;95526.58;;;-3.71;75.00
76990;BME280;65924;47.250;11.332;2024-01-10T02:30:37;95526.58;;;-3.70;75.29
76990;BME280;65924;47.250;11.332;2024-01-10T02:31:09;95523.41;;;-3.70;75.64
76990;BME280;65924;47.250;11.332;2024-01-10T02:31:40;95525.59;;;-3.70;75.73
76990;BME280;65924;47.250;11.332;2024-01-10T02:32:10;95525.25;;;-3.70;75.72
76990;BME280;65924;47.250;11.332;2024-01-10T02:32:41;95525.42;;;-3.69;75.72
76990;BME280;65924;47.250;11.332;2024-01-10T02:33:12;95525.58;;;-3.69;75.77
76990;BME280;65924;47.250;11.332;2024-01-10T02:33:42;95528.09;;;-3.68;75.66
76990;BME280;65924;47.250;11.332;2024-01-10T02:34:13;95525.91;;;-3.69;75.49
76990;BME280;65924;47.250;11.332;2024-01-10T02:34:43;95522.10;;;-3.69;75.59
76990;BME280;65924;47.250;11.332;2024-01-10T02:35:14;95524.59;;;-3.70;75.57
76990;BME280;65924;47.250;11.332;2024-01-10T02:35:45;95522.75;;;-3.70;75.69
76990;BME280;65924;47.250;11.332;2024-01-10T02:36:15;95520.10;;;-3.71;75.84
76990;BME280;65924;47.250;11.332;2024-01-10T02:36:46;95519.59;;;-3.70;75.96
76990;BME280;65924;47.250;11.332;2024-01-10T02:37:17;95518.94;;;-3.69;75.89
76990;BME280;65924;47.250;11.332;2024-01-10T02:37:48;95518.11;;;-3.69;75.72
76990;BME280;65924;47.250;11.332;2024-01-10T02:38:21;95514.62;;;-3.70;75.65
76990;BME280;65924;47.250;11.332;2024-01-10T02:38:53;95519.59;;;-3.71;75.54
76990;BME280;65924;47.250;11.332;2024-01-10T02:39:24;95516.95;;;-3.72;75.55
76990;BME280;65924;47.250;11.332;2024-01-10T02:39:55;95518.10;;;-3.72;75.54
76990;BME280;65924;47.250;11.332;2024-01-10T02:40:25;95514.61;;;-3.71;75.54
76990;BME280;65924;47.250;11.332;2024-01-10T02:40:56;95516.10;;;-3.72;75.56
76990;BME280;65924;47.250;11.332;2024-01-10T02:41:27;95517.94;;;-3.71;75.40
76990;BME280;65924;47.250;11.332;2024-01-10T02:41:57;95515.77;;;-3.72;75.43
76990;BME280;65924;47.250;11.332;2024-01-10T02:42:28;95515.94;;;-3.72;75.37
76990;BME280;65924;47.250;11.332;2024-01-10T02:43:00;95515.77;;;-3.73;75.26
76990;BME280;65924;47.250;11.332;2024-01-10T02:43:31;95514.94;;;-3.73;75.36
76990;BME280;65924;47.250;11.332;2024-01-10T02:44:01;95516.27;;;-3.74;75.37
76990;BME280;65924;47.250;11.332;2024-01-10T02:44:33;95516.94;;;-3.74;75.46
76990;BME280;65924;47.250;11.332;2024-01-10T02:45:04;95517.92;;;-3.75;75.32
76990;BME280;65924;47.250;11.332;2024-01-10T02:45:35;95518.09;;;-3.75;75.43
76990;BME280;65924;47.250;11.332;2024-01-10T02:46:06;95513.94;;;-3.75;75.52
76990;BME280;65924;47.250;11.332;2024-01-10T02:46:36;95512.77;;;-3.76;75.54
76990;BME280;65924;47.250;11.332;2024-01-10T02:47:07;95514.60;;;-3.75;75.38
76990;BME280;65924;47.250;11.332;2024-01-10T02:47:38;95514.92;;;-3.76;75.33
76990;BME280;65924;47.250;11.332;2024-01-10T02:48:09;95512.77;;;-3.76;75.28
76990;BME280;65924;47.250;11.332;2024-01-10T02:48:40;95508.94;;;-3.77;75.29
76990;BME280;65924;47.250;11.332;2024-01-10T02:49:11;95508.77;;;-3.77;75.20
76990;BME280;65924;47.250;11.332;2024-01-10T02:49:42;95509.45;;;-3.76;75.43